createdAt,value
2023-01-31T00:02:52.614Z,99702.95
2023-01-31T00:07:23.267Z,99698.86
2023-01-31T00:11:28.470Z,99691.88
2023-01-31T00:42:54.064Z,99740.92
2023-01-31T00:47:11.779Z,99761.53
2023-01-31T00:51:19.149Z,99762.27
2023-01-31T00:55:23.941Z,99769.07
2023-01-31T00:59:34.900Z,99773.42
2023-01-31T01:03:40.161Z,99771.04
2023-01-31T01:08:35.559Z,99779.86
2023-01-31T01:12:39.019Z,99795.95
2023-01-31T01:16:43.630Z,99801.77
2023-01-31T01:20:46.661Z,99810.45
2023-01-31T01:25:04.428Z,99806.89
2023-01-31T01:29:07.470Z,99815.45
2023-01-31T01:33:43.492Z,99817.48
2023-01-31T01:37:46.508Z,99820.98
2023-01-31T01:41:52.813Z,99821.85
2023-01-31T01:46:01.110Z,99831.98
2023-01-31T01:50:17.299Z,99836.27
2023-01-31T01:54:45.366Z,99834.54
2023-01-31T01:59:33.595Z,99834.99
2023-01-31T02:30:45.671Z,99905.38
2023-01-31T02:35:23.646Z,99904.81
2023-01-31T02:40:07.386Z,99916.16
2023-01-31T02:44:49.282Z,99915.83
2023-01-31T02:54:49.176Z,99931.16
2023-01-31T02:59:12.115Z,99933.84
2023-01-31T03:03:35.414Z,99940.88
2023-01-31T03:07:39.616Z,99954.28
2023-01-31T03:12:08.313Z,99967.06
2023-01-31T03:16:50.791Z,99978.25
2023-01-31T03:21:28.922Z,99977.07
2023-01-31T03:25:35.134Z,99994.17
2023-01-31T03:29:39.568Z,99997.05
2023-01-31T03:33:58.524Z,99997.80
2023-01-31T03:38:22.819Z,99997.10
2023-01-31T03:43:06.809Z,100004.40
2023-01-31T03:47:38.447Z,100006.45
2023-01-31T03:51:47.824Z,100007.17
2023-01-31T04:00:45.766Z,100023.02
2023-01-31T04:04:58.999Z,100037.27
2023-01-31T04:09:00.925Z,100045.19
2023-01-31T04:13:06.565Z,100048.20
2023-01-31T04:17:08.466Z,100046.43
2023-01-31T04:21:15.162Z,100053.69
2023-01-31T04:25:17.370Z,100055.98
2023-01-31T04:29:20.607Z,100060.13
2023-01-31T04:33:23.307Z,100069.73
2023-01-31T04:37:25.336Z,100080.86
2023-01-31T04:41:27.964Z,100087.05
2023-01-31T04:45:29.977Z,100092.46
2023-01-31T04:49:31.795Z,100096.98
2023-01-31T04:54:25.283Z,100095.23
2023-01-31T04:58:27.003Z,100094.27
2023-01-31T05:02:30.995Z,100095.86
2023-01-31T05:06:33.702Z,100086.99
2023-01-31T05:10:36.289Z,100104.54
2023-01-31T05:14:38.578Z,100099.59
2023-01-31T05:18:40.967Z,100115.86
2023-01-31T05:23:10.565Z,100122.63
2023-01-31T05:27:12.322Z,100122.34
2023-01-31T05:31:14.498Z,100117.52
2023-01-31T05:35:20.933Z,100116.23
2023-01-31T05:39:22.646Z,100123.70
2023-01-31T05:43:27.549Z,100132.81
2023-01-31T05:47:29.270Z,100132.17
2023-01-31T05:51:31.096Z,100133.29
2023-01-31T05:55:33.336Z,100138.58
2023-01-31T05:59:35.232Z,100149.83
2023-01-31T06:03:37.163Z,100147.77
2023-01-31T06:07:41.849Z,100154.40
2023-01-31T06:11:47.183Z,100157.71
2023-01-31T06:15:50.048Z,100167.86
2023-01-31T06:19:52.150Z,100162.12
2023-01-31T06:23:53.951Z,100161.95
2023-01-31T06:27:56.129Z,100166.27
2023-01-31T06:31:57.710Z,100163.98
2023-01-31T06:35:59.929Z,100176.92
2023-01-31T06:40:05.627Z,100181.54
2023-01-31T06:44:07.587Z,100191.91
2023-01-31T06:48:09.159Z,100190.02
2023-01-31T06:52:11.710Z,100203.43
2023-01-31T06:56:14.789Z,100206.19
2023-01-31T07:00:18.183Z,100202.86
2023-01-31T07:04:19.932Z,100207.80
2023-01-31T07:08:21.916Z,100205.05
2023-01-31T07:12:23.517Z,100196.48
2023-01-31T07:16:25.719Z,100206.00
2023-01-31T07:20:27.599Z,100221.48
2023-01-31T07:24:29.261Z,100216.30
2023-01-31T07:28:31.353Z,100222.77
2023-01-31T07:32:36.081Z,100228.65
2023-01-31T07:36:41.157Z,100241.05
2023-01-31T07:41:11.156Z,100247.88
2023-01-31T07:45:23.569Z,100250.02
2023-01-31T07:49:25.857Z,100256.16
2023-01-31T07:53:34.249Z,100253.59
2023-01-31T07:57:36.062Z,100260.16
2023-01-31T08:01:56.521Z,100262.84
2023-01-31T08:06:10.894Z,100260.30
2023-01-31T08:10:13.891Z,100263.86
2023-01-31T08:14:15.589Z,100264.75
2023-01-31T08:18:17.465Z,100263.70
2023-01-31T08:22:19.310Z,100265.83
2023-01-31T08:26:22.491Z,100257.27
2023-01-31T08:30:24.401Z,100252.27
2023-01-31T08:34:30.346Z,100261.13
2023-01-31T08:38:32.680Z,100251.19
2023-01-31T08:42:34.624Z,100265.91
2023-01-31T08:46:37.779Z,100274.80
2023-01-31T08:50:40.562Z,100271.25
2023-01-31T08:54:42.859Z,100279.02
2023-01-31T08:58:49.913Z,100291.02
2023-01-31T09:02:54.984Z,100291.92
2023-01-31T09:06:56.908Z,100291.11
2023-01-31T09:10:59.951Z,100297.04
2023-01-31T09:15:04.131Z,100304.67
2023-01-31T09:19:06.612Z,100308.66
2023-01-31T09:23:08.360Z,100302.46
2023-01-31T09:27:10.015Z,100299.60
2023-01-31T09:31:15.509Z,100304.44
2023-01-31T09:35:19.097Z,100303.50
2023-01-31T09:39:21.007Z,100301.64
2023-01-31T09:43:33.591Z,100298.16
2023-01-31T09:47:53.138Z,100297.53
2023-01-31T09:52:00.891Z,100306.52
2023-01-31T09:56:47.273Z,100299.45
2023-01-31T10:01:03.452Z,100293.41
2023-01-31T10:05:23.570Z,100292.86
2023-01-31T10:09:40.347Z,100289.37
2023-01-31T10:13:54.058Z,100293.52
2023-01-31T10:18:07.986Z,100294.10
2023-01-31T10:22:22.675Z,100285.23
2023-01-31T10:26:37.352Z,100289.46
2023-01-31T10:31:01.855Z,100279.36
2023-01-31T10:35:46.463Z,100266.70
2023-01-31T10:39:53.587Z,100269.08
2023-01-31T10:44:03.425Z,100265.52
2023-01-31T10:48:19.801Z,100258.98
2023-01-31T10:52:33.069Z,100264.77
2023-01-31T10:56:42.441Z,100264.25
2023-01-31T11:00:46.708Z,100261.77
2023-01-31T11:04:52.814Z,100258.97
2023-01-31T11:09:22.074Z,100256.58
2023-01-31T11:13:25.976Z,100253.44
2023-01-31T11:17:27.898Z,100255.98
2023-01-31T11:21:33.723Z,100244.46
2023-01-31T11:25:35.369Z,100244.86
2023-01-31T11:29:49.488Z,100227.27
2023-01-31T11:34:01.726Z,100223.48
2023-01-31T11:38:09.659Z,100209.67
2023-01-31T11:42:15.365Z,100206.19
2023-01-31T11:46:17.134Z,100199.45
2023-01-31T11:50:44.372Z,100197.91
2023-01-31T11:54:56.934Z,100191.16
2023-01-31T11:59:09.829Z,100181.88
2023-01-31T12:03:17.515Z,100176.16
2023-01-31T12:07:28.929Z,100168.17
2023-01-31T12:11:33.464Z,100159.41
2023-01-31T12:15:35.093Z,100157.00
2023-01-31T12:19:50.962Z,100160.77
2023-01-31T12:23:55.697Z,100135.98
2023-01-31T12:28:26.790Z,100132.91
2023-01-31T12:32:31.571Z,100132.69
2023-01-31T12:36:43.443Z,100134.20
2023-01-31T12:41:07.437Z,100132.23
2023-01-31T12:45:31.090Z,100125.14
2023-01-31T12:50:02.470Z,100118.46
2023-01-31T12:59:56.006Z,100093.26
2023-01-31T13:04:46.142Z,100085.50
2023-01-31T13:09:08.166Z,100081.30
2023-01-31T13:13:35.826Z,100072.55
2023-01-31T13:17:44.416Z,100056.29
2023-01-31T13:21:51.324Z,100044.23
2023-01-31T13:26:09.101Z,100039.52
2023-01-31T13:30:28.643Z,100028.75
2023-01-31T13:34:54.267Z,100022.63
2023-01-31T13:38:59.306Z,100018.79
2023-01-31T13:43:12.505Z,100026.45
2023-01-31T13:47:32.773Z,100017.45
2023-01-31T13:56:08.479Z,100008.04
2023-01-31T14:00:32.384Z,100005.65
2023-01-31T14:04:39.957Z,100000.77
2023-01-31T14:08:51.065Z,99996.05
2023-01-31T14:13:37.029Z,99994.91
2023-01-31T14:17:38.665Z,99987.48
2023-01-31T14:22:07.171Z,99986.17
2023-01-31T14:26:43.177Z,99978.70
2023-01-31T14:30:48.631Z,99973.97
2023-01-31T14:34:50.495Z,99969.63
2023-01-31T14:39:18.284Z,99963.00
2023-01-31T14:43:30.051Z,99974.13
2023-01-31T14:47:49.636Z,99969.12
2023-01-31T14:52:22.521Z,99967.73
2023-01-31T14:57:04.020Z,99962.66
2023-01-31T15:01:11.709Z,99958.80
2023-01-31T15:05:31.712Z,99955.26
2023-01-31T15:09:38.696Z,99951.59
2023-01-31T15:13:47.867Z,99952.20
2023-01-31T15:18:02.733Z,99950.80
2023-01-31T15:22:08.016Z,99947.51
2023-01-31T15:26:11.012Z,99944.29
2023-01-31T15:30:25.643Z,99929.35
2023-01-31T15:34:49.258Z,99928.39
2023-01-31T15:39:41.313Z,99917.71
2023-01-31T15:43:43.027Z,99916.81
2023-01-31T15:47:55.898Z,99916.12
2023-01-31T15:52:20.806Z,99911.77
2023-01-31T15:56:26.586Z,99912.07
2023-01-31T16:00:37.610Z,99911.55
2023-01-31T16:04:39.653Z,99902.27
2023-01-31T16:08:41.203Z,99890.23
2023-01-31T16:12:53.833Z,99882.30
2023-01-31T16:16:57.771Z,99890.80
2023-01-31T16:21:25.331Z,99887.46
2023-01-31T16:25:27.662Z,99894.54
2023-01-31T16:30:05.922Z,99894.31
2023-01-31T16:34:22.901Z,99885.76
2023-01-31T16:38:26.954Z,99885.41
2023-01-31T16:42:38.822Z,99885.42
2023-01-31T16:46:45.221Z,99883.18
2023-01-31T16:50:49.250Z,99877.34
2023-01-31T16:54:54.515Z,99870.42
2023-01-31T16:58:58.611Z,99868.66
2023-01-31T17:03:02.281Z,99871.38
2023-01-31T17:07:12.103Z,99856.98
2023-01-31T17:11:34.104Z,99849.52
2023-01-31T17:15:40.323Z,99845.05
2023-01-31T17:19:47.114Z,99835.65
2023-01-31T17:23:49.159Z,99837.00
2023-01-31T17:27:51.117Z,99827.52
2023-01-31T17:31:52.760Z,99821.83
2023-01-31T17:35:54.382Z,99827.45
2023-01-31T17:39:56.048Z,99816.64
2023-01-31T17:43:57.783Z,99812.46
2023-01-31T17:47:59.394Z,99814.65
2023-01-31T17:52:03.083Z,99801.02
2023-01-31T17:56:05.401Z,99796.02
2023-01-31T18:00:12.787Z,99791.20
2023-01-31T18:04:14.508Z,99779.05
2023-01-31T18:08:16.273Z,99781.08
2023-01-31T18:12:17.924Z,99792.44
2023-01-31T18:16:21.022Z,99793.89
2023-01-31T18:20:22.799Z,99790.29
2023-01-31T18:24:25.141Z,99785.91
2023-01-31T18:28:27.167Z,99783.74
2023-01-31T18:32:28.769Z,99760.36
2023-01-31T18:36:30.624Z,99763.50
2023-01-31T18:40:32.954Z,99753.52
2023-01-31T18:45:04.662Z,99744.39
2023-01-31T18:49:06.807Z,99751.08
2023-01-31T18:53:08.542Z,99759.41
2023-01-31T18:58:06.695Z,99750.67
2023-01-31T19:02:10.647Z,99754.40
2023-01-31T19:06:27.625Z,99756.19
2023-01-31T19:10:29.324Z,99751.60
2023-01-31T19:14:31.214Z,99735.91
2023-01-31T19:18:33.723Z,99729.58
2023-01-31T19:22:35.492Z,99737.46
2023-01-31T19:26:37.341Z,99740.28
2023-01-31T19:30:39.614Z,99725.29
2023-01-31T19:35:07.597Z,99723.15
2023-01-31T19:39:12.638Z,99727.10
2023-01-31T19:43:14.380Z,99721.39
2023-01-31T19:47:16.051Z,99716.16
2023-01-31T19:51:22.913Z,99706.61
2023-01-31T19:55:24.576Z,99696.71
2023-01-31T19:59:26.279Z,99689.16
2023-01-31T20:03:34.614Z,99693.62
2023-01-31T20:07:37.642Z,99685.91
2023-01-31T20:11:45.928Z,99685.27
2023-01-31T20:15:47.768Z,99670.73
2023-01-31T20:19:56.614Z,99681.02
2023-01-31T20:23:58.220Z,99669.47
2023-01-31T20:28:12.630Z,99676.86
2023-01-31T20:32:17.549Z,99680.16
2023-01-31T20:36:19.269Z,99679.18
2023-01-31T20:40:21.141Z,99676.79
2023-01-31T20:44:22.947Z,99684.74
2023-01-31T20:48:24.614Z,99691.80
2023-01-31T20:52:26.318Z,99691.70
2023-01-31T21:03:20.967Z,99684.39
2023-01-31T21:07:22.819Z,99670.85
2023-01-31T21:11:48.577Z,99662.52
2023-01-31T21:15:54.961Z,99669.26
2023-01-31T21:20:00.854Z,99673.87
2023-01-31T21:24:03.911Z,99670.14
2023-01-31T21:28:26.520Z,99670.55
2023-01-31T21:32:28.753Z,99672.92
2023-01-31T21:36:32.105Z,99658.94
2023-01-31T21:40:39.329Z,99661.20
2023-01-31T21:44:42.466Z,99653.75
2023-01-31T21:48:44.225Z,99651.77
2023-01-31T21:52:48.297Z,99616.91
2023-01-31T21:56:50.010Z,99633.11
2023-01-31T22:01:18.116Z,99614.32
2023-01-31T22:05:20.028Z,99617.32
2023-01-31T22:09:23.121Z,99622.70
2023-01-31T22:13:24.853Z,99626.52
2023-01-31T22:17:26.749Z,99618.53
2023-01-31T22:21:32.248Z,99618.73
2023-01-31T22:25:37.146Z,99628.08
2023-01-31T22:30:34.522Z,99636.13
2023-01-31T22:34:36.208Z,99644.26
2023-01-31T22:38:49.519Z,99639.60
2023-01-31T22:42:51.303Z,99645.91
2023-01-31T22:46:55.229Z,99652.33
2023-01-31T22:51:02.770Z,99663.57
2023-01-31T22:55:04.821Z,99658.27
2023-01-31T22:59:08.527Z,99664.48
2023-01-31T23:03:10.262Z,99662.49
2023-01-31T23:07:13.279Z,99659.47
2023-01-31T23:11:17.703Z,99672.55
2023-01-31T23:15:19.554Z,99756.50
2023-01-31T23:19:22.096Z,99780.19
2023-01-31T23:23:25.723Z,99774.85
2023-01-31T23:27:57.793Z,99780.86
2023-01-31T23:31:59.302Z,99773.55
2023-01-31T23:36:00.757Z,99742.76
2023-01-31T23:40:05.167Z,99743.91
2023-01-31T23:44:19.416Z,99710.23
2023-01-31T23:48:20.946Z,99714.84
2023-01-31T23:52:23.880Z,99723.65
2023-01-31T23:56:26.241Z,99707.64
